createdAt,value
2023-01-28T00:01:03.020Z,5.36
2023-01-28T00:01:53.760Z,5.33
2023-01-28T00:02:53.747Z,5.33
2023-01-28T00:03:53.761Z,5.33
2023-01-28T00:04:53.762Z,5.35
2023-01-28T00:05:53.761Z,5.37
2023-01-28T00:06:53.747Z,5.36
2023-01-28T00:07:53.761Z,5.33
2023-01-28T00:08:53.762Z,5.3
2023-01-28T00:09:53.747Z,5.27
2023-01-28T00:10:53.748Z,5.26
2023-01-28T00:11:53.761Z,5.24
2023-01-28T00:12:53.762Z,5.25
2023-01-28T00:13:53.747Z,5.27
2023-01-28T00:14:53.762Z,5.27
2023-01-28T00:15:53.762Z,5.26
2023-01-28T00:16:53.762Z,5.26
2023-01-28T00:17:53.747Z,5.27
2023-01-28T00:18:53.761Z,5.25
2023-01-28T00:19:53.827Z,5.24
2023-01-28T00:20:53.762Z,5.21
2023-01-28T00:21:53.748Z,5.19
2023-01-28T00:22:53.761Z,5.16
2023-01-28T00:23:53.763Z,5.14
2023-01-28T00:24:53.762Z,5.12
2023-01-28T00:25:53.747Z,5.1
2023-01-28T00:26:53.786Z,5.08
2023-01-28T00:27:53.763Z,5.06
2023-01-28T00:28:53.748Z,5.04
2023-01-28T00:29:53.749Z,5.03
2023-01-28T00:30:53.762Z,5.03
2023-01-28T00:31:53.762Z,5.05
2023-01-28T00:32:53.748Z,5.05
2023-01-28T00:33:53.762Z,5.05
2023-01-28T00:34:53.763Z,5.05
2023-01-28T00:35:53.762Z,5.07
2023-01-28T00:36:53.748Z,5.05
2023-01-28T00:37:53.763Z,5.03
2023-01-28T00:38:53.763Z,5.04
2023-01-28T00:39:53.762Z,5.06
2023-01-28T00:40:53.749Z,5.09
2023-01-28T00:41:53.762Z,5.09
2023-01-28T00:42:53.764Z,5.09
2023-01-28T00:43:53.866Z,5.09
2023-01-28T00:44:53.749Z,5.08
2023-01-28T00:45:53.763Z,5.07
2023-01-28T00:46:53.763Z,5.05
2023-01-28T00:47:53.763Z,5.05
2023-01-28T00:48:53.750Z,5.04
2023-01-28T00:49:53.763Z,5.02
2023-01-28T00:50:53.765Z,5.05
2023-01-28T00:51:53.749Z,5.07
2023-01-28T00:52:53.749Z,5.07
2023-01-28T00:53:53.764Z,5.08
2023-01-28T00:54:53.787Z,5.09
2023-01-28T00:55:53.749Z,5.09
2023-01-28T00:56:53.764Z,5.07
2023-01-28T00:57:53.764Z,5.06
2023-01-28T00:58:53.764Z,5.07
2023-01-28T00:59:53.750Z,5.09
2023-01-28T01:00:53.764Z,5.1
2023-01-28T01:01:53.789Z,5.13
2023-01-28T01:02:53.763Z,5.18
2023-01-28T01:03:53.750Z,5.2
2023-01-28T01:04:53.764Z,5.18
2023-01-28T01:05:53.765Z,5.16
2023-01-28T01:06:53.764Z,5.13
2023-01-28T01:07:53.751Z,5.1
2023-01-28T01:08:53.772Z,5.06
2023-01-28T01:09:53.765Z,5.04
2023-01-28T01:10:53.750Z,5.01
2023-01-28T01:11:53.751Z,4.98
2023-01-28T01:12:53.765Z,4.94
2023-01-28T01:13:53.765Z,4.94
2023-01-28T01:14:53.750Z,4.96
2023-01-28T01:15:53.764Z,4.98
2023-01-28T01:16:53.765Z,4.98
2023-01-28T01:17:53.765Z,4.98
2023-01-28T01:18:53.749Z,4.98
2023-01-28T01:19:53.764Z,4.94
2023-01-28T01:20:53.764Z,4.92
2023-01-28T01:21:53.764Z,4.92
2023-01-28T01:22:53.752Z,4.91
2023-01-28T01:23:53.765Z,4.89
2023-01-28T01:24:53.766Z,4.89
2023-01-28T01:25:53.764Z,4.91
2023-01-28T01:26:53.751Z,4.94
2023-01-28T01:27:53.766Z,4.94
2023-01-28T01:28:53.766Z,4.94
2023-01-28T01:29:53.751Z,4.92
2023-01-28T01:30:53.752Z,4.9
2023-01-28T01:31:53.766Z,4.87
2023-01-28T01:32:53.766Z,4.85
2023-01-28T01:33:53.751Z,4.86
2023-01-28T01:34:53.829Z,4.84
2023-01-28T01:35:53.766Z,4.85
2023-01-28T01:36:53.765Z,4.85
2023-01-28T01:37:53.750Z,4.87
2023-01-28T01:38:53.766Z,4.88
2023-01-28T01:40:03.024Z,4.88
2023-01-28T01:40:53.766Z,4.91
2023-01-28T01:41:53.752Z,4.94
2023-01-28T01:42:53.766Z,4.96
2023-01-28T01:43:59.861Z,4.98
2023-01-28T01:44:53.765Z,4.98
2023-01-28T01:45:53.752Z,4.98
2023-01-28T01:46:53.767Z,5
2023-01-28T01:47:53.768Z,5.04
2023-01-28T01:48:53.767Z,5.08
2023-01-28T01:49:53.753Z,5.09
2023-01-28T01:50:53.767Z,5.06
2023-01-28T01:51:53.768Z,5.07
2023-01-28T01:52:53.751Z,5.1
2023-01-28T01:53:53.753Z,5.12
2023-01-28T01:54:53.767Z,5.12
2023-01-28T01:55:53.767Z,5.14
2023-01-28T01:56:53.753Z,5.16
2023-01-28T01:57:53.754Z,5.16
2023-01-28T01:58:53.767Z,5.18
2023-01-28T01:59:53.767Z,5.19
2023-01-28T02:00:53.753Z,5.19
2023-01-28T02:01:53.767Z,5.17
2023-01-28T02:02:53.767Z,5.17
2023-01-28T02:03:53.767Z,5.17
2023-01-28T02:04:53.753Z,5.15
2023-01-28T02:05:53.767Z,5.15
2023-01-28T02:06:53.769Z,5.17
2023-01-28T02:07:53.768Z,5.18
2023-01-28T02:08:53.754Z,5.17
2023-01-28T02:09:53.768Z,5.14
2023-01-28T02:10:53.769Z,5.14
2023-01-28T02:11:53.768Z,5.16
2023-01-28T02:12:53.754Z,5.15
2023-01-28T02:13:53.768Z,5.16
2023-01-28T02:14:53.768Z,5.18
2023-01-28T02:15:53.754Z,5.22
2023-01-28T02:16:53.755Z,5.25
2023-01-28T02:17:53.768Z,5.27
2023-01-28T02:18:53.792Z,5.28
2023-01-28T02:19:53.754Z,5.31
2023-01-28T02:20:53.768Z,5.28
2023-01-28T02:21:53.769Z,5.28
2023-01-28T02:22:53.769Z,5.31
2023-01-28T02:23:53.754Z,5.37
2023-01-28T02:24:53.769Z,5.4
2023-01-28T02:25:53.794Z,5.45
2023-01-28T02:26:53.768Z,5.49
2023-01-28T02:27:53.755Z,5.51
2023-01-28T02:28:53.768Z,5.5
2023-01-28T02:29:53.770Z,5.48
2023-01-28T02:30:53.769Z,5.48
2023-01-28T02:31:53.755Z,5.49
2023-01-28T02:32:53.776Z,5.49
2023-01-28T02:33:53.770Z,5.5
2023-01-28T02:34:53.755Z,5.51
2023-01-28T02:35:53.756Z,5.51
2023-01-28T02:36:53.769Z,5.51
2023-01-28T02:37:53.770Z,5.49
2023-01-28T02:38:53.755Z,5.51
2023-01-28T02:39:53.769Z,5.5
2023-01-28T02:40:53.770Z,5.48
2023-01-28T02:41:53.770Z,5.47
2023-01-28T02:42:53.755Z,5.47
2023-01-28T02:43:57.629Z,5.45
2023-01-28T02:44:53.770Z,5.45
2023-01-28T02:45:53.770Z,5.44
2023-01-28T02:46:53.756Z,5.42
2023-01-28T02:47:53.770Z,5.41
2023-01-28T02:48:53.811Z,5.42
2023-01-28T02:49:53.769Z,5.46
2023-01-28T02:50:53.757Z,5.47
2023-01-28T02:51:53.770Z,5.46
2023-01-28T02:52:53.771Z,5.48
2023-01-28T02:53:53.770Z,5.49
2023-01-28T02:54:53.757Z,5.5
2023-01-28T02:55:53.771Z,5.52
2023-01-28T02:56:53.772Z,5.54
2023-01-28T02:57:53.755Z,5.57
2023-01-28T02:58:53.757Z,5.58
2023-01-28T02:59:53.771Z,5.52
2023-01-28T03:00:53.771Z,5.53
2023-01-28T03:01:53.757Z,5.53
2023-01-28T03:02:53.770Z,5.53
2023-01-28T03:03:53.771Z,5.54
2023-01-28T03:04:53.771Z,5.57
2023-01-28T03:05:53.757Z,5.58
2023-01-28T03:06:53.770Z,5.56
2023-01-28T03:07:53.770Z,5.53
2023-01-28T03:08:53.770Z,5.53
2023-01-28T03:09:53.758Z,5.53
2023-01-28T03:10:53.771Z,5.53
2023-01-28T03:11:53.772Z,5.52
2023-01-28T03:12:53.771Z,5.48
2023-01-28T03:13:53.758Z,5.46
2023-01-28T03:14:53.772Z,5.44
2023-01-28T03:15:53.772Z,5.41
2023-01-28T03:16:53.757Z,5.41
2023-01-28T03:18:03.015Z,5.41
2023-01-28T03:18:53.772Z,5.44
2023-01-28T03:19:53.773Z,5.45
2023-01-28T03:20:53.756Z,5.47
2023-01-28T03:21:53.758Z,5.46
2023-01-28T03:22:53.772Z,5.46
2023-01-28T03:23:53.771Z,5.43
2023-01-28T03:24:53.758Z,5.4
2023-01-28T03:25:53.772Z,5.36
2023-01-28T03:26:53.772Z,5.34
2023-01-28T03:27:53.771Z,5.31
2023-01-28T03:28:53.758Z,5.29
2023-01-28T03:29:53.773Z,5.27
2023-01-28T03:30:53.774Z,5.27
2023-01-28T03:31:53.773Z,5.29
2023-01-28T03:32:53.759Z,5.29
2023-01-28T03:33:53.773Z,5.3
2023-01-28T03:34:53.773Z,5.29
2023-01-28T03:35:53.773Z,5.28
2023-01-28T03:36:53.759Z,5.25
2023-01-28T03:37:53.773Z,5.23
2023-01-28T03:38:53.773Z,5.23
2023-01-28T03:39:53.759Z,5.25
2023-01-28T03:40:53.759Z,5.27
2023-01-28T03:41:53.773Z,5.26
2023-01-28T03:42:53.773Z,5.26
2023-01-28T03:44:01.992Z,5.27
2023-01-28T03:44:53.782Z,5.28
2023-01-28T03:45:53.773Z,5.29
2023-01-28T03:46:53.773Z,5.31
2023-01-28T03:47:53.759Z,5.33
2023-01-28T03:48:53.774Z,5.33
2023-01-28T03:49:53.774Z,5.32
2023-01-28T03:50:53.774Z,5.31
2023-01-28T03:51:53.760Z,5.3
2023-01-28T03:52:53.774Z,5.28
2023-01-28T03:54:02.009Z,5.25
2023-01-28T03:54:53.774Z,5.22
2023-01-28T03:55:53.760Z,5.18
2023-01-28T03:56:53.773Z,5.13
2023-01-28T03:57:53.774Z,5.1
2023-01-28T03:58:53.774Z,5.09
2023-01-28T03:59:53.760Z,5.07
2023-01-28T04:00:53.774Z,5.04
2023-01-28T04:01:53.774Z,5.03
2023-01-28T04:02:53.760Z,5.03
2023-01-28T04:04:01.994Z,5.01
2023-01-28T04:04:53.774Z,5.02
2023-01-28T04:05:53.775Z,5.03
2023-01-28T04:06:53.759Z,5.05
2023-01-28T04:07:53.775Z,5.07
2023-01-28T04:08:53.775Z,5.09
2023-01-28T04:09:53.775Z,5.1
2023-01-28T04:10:53.760Z,5.1
2023-01-28T04:11:53.774Z,5.07
2023-01-28T04:12:53.775Z,5.06
2023-01-28T04:13:53.775Z,5.08
2023-01-28T04:14:53.761Z,5.09
2023-01-28T04:15:53.775Z,5.09
2023-01-28T04:16:53.776Z,5.1
2023-01-28T04:17:53.775Z,5.11
2023-01-28T04:18:53.761Z,5.12
2023-01-28T04:19:53.774Z,5.12
2023-01-28T04:20:53.776Z,5.12
2023-01-28T04:21:53.761Z,5.12
2023-01-28T04:22:53.762Z,5.14
2023-01-28T04:23:53.776Z,5.14
2023-01-28T04:24:53.777Z,5.15
2023-01-28T04:25:53.761Z,5.15
2023-01-28T04:26:53.762Z,5.14
2023-01-28T04:27:53.776Z,5.13
2023-01-28T04:28:53.776Z,5.12
2023-01-28T04:29:53.762Z,5.11
2023-01-28T04:30:53.776Z,5.11
2023-01-28T04:31:53.776Z,5.11
2023-01-28T04:32:53.776Z,5.14
2023-01-28T04:33:53.762Z,5.16
2023-01-28T04:34:53.776Z,5.14
2023-01-28T04:35:53.776Z,5.12
2023-01-28T04:36:53.775Z,5.11
2023-01-28T04:37:53.763Z,5.11
2023-01-28T04:38:53.775Z,5.1
2023-01-28T04:39:53.777Z,5.1
2023-01-28T04:40:53.776Z,5.12
2023-01-28T04:41:53.763Z,5.11
2023-01-28T04:42:53.777Z,5.1
2023-01-28T04:43:53.777Z,5.12
2023-01-28T04:44:53.762Z,5.14
2023-01-28T04:45:53.763Z,5.14
2023-01-28T04:46:53.777Z,5.14
2023-01-28T04:47:53.800Z,5.15
2023-01-28T04:48:53.763Z,5.16
2023-01-28T04:49:53.776Z,5.14
2023-01-28T04:50:53.777Z,5.13
2023-01-28T04:51:53.777Z,5.12
2023-01-28T04:52:53.763Z,5.11
2023-01-28T04:53:53.776Z,5.08
2023-01-28T04:54:53.803Z,5.07
2023-01-28T04:56:03.034Z,5.07
2023-01-28T04:56:53.764Z,5.07
2023-01-28T04:57:53.777Z,5.08
2023-01-28T04:58:53.777Z,5.1
2023-01-28T04:59:53.777Z,5.13
2023-01-28T05:00:53.764Z,5.15
2023-01-28T05:01:53.778Z,5.13
2023-01-28T05:02:53.779Z,5.14
2023-01-28T05:03:53.762Z,5.17
2023-01-28T05:04:53.764Z,5.18
2023-01-28T05:05:53.777Z,5.17
2023-01-28T05:06:53.779Z,5.15
2023-01-28T05:07:53.764Z,5.16
2023-01-28T05:08:53.764Z,5.15
2023-01-28T05:09:53.778Z,5.16
2023-01-28T05:11:53.764Z,5.17
2023-01-28T05:12:53.778Z,5.16
2023-01-28T05:13:53.778Z,5.16
2023-01-28T05:14:53.777Z,5.18
2023-01-28T05:15:53.764Z,5.2
2023-01-28T05:16:53.779Z,5.19
2023-01-28T05:17:53.779Z,5.2
2023-01-28T05:18:53.779Z,5.22
2023-01-28T05:19:53.764Z,5.22
2023-01-28T05:21:53.780Z,5.2
2023-01-28T05:22:53.778Z,5.22
2023-01-28T05:23:53.765Z,5.24
2023-01-28T05:24:53.778Z,5.25
2023-01-28T05:25:53.780Z,5.28
2023-01-28T05:26:53.779Z,5.31
2023-01-28T05:27:53.765Z,5.33
2023-01-28T05:28:53.779Z,5.34
2023-01-28T05:29:53.779Z,5.36
2023-01-28T05:30:53.765Z,5.38
2023-01-28T05:31:53.766Z,5.35
2023-01-28T05:32:53.779Z,5.33
2023-01-28T05:33:53.780Z,5.32
2023-01-28T05:34:53.765Z,5.32
2023-01-28T05:35:53.780Z,5.3
2023-01-28T05:36:53.780Z,5.28
2023-01-28T05:37:53.779Z,5.28
2023-01-28T05:38:53.765Z,5.28
2023-01-28T05:39:53.780Z,5.28
2023-01-28T05:40:53.780Z,5.28
2023-01-28T05:41:53.779Z,5.29
2023-01-28T05:42:53.766Z,5.32
2023-01-28T05:43:53.779Z,5.32
2023-01-28T05:44:53.781Z,5.31
2023-01-28T05:45:53.779Z,5.31
2023-01-28T05:46:53.766Z,5.32
2023-01-28T05:47:53.788Z,5.33
2023-01-28T05:48:53.781Z,5.37
2023-01-28T05:49:53.766Z,5.39
2023-01-28T05:50:53.767Z,5.39
2023-01-28T05:51:53.781Z,5.39
2023-01-28T05:52:53.781Z,5.42
2023-01-28T05:53:53.766Z,5.46
2023-01-28T05:54:53.781Z,5.47
2023-01-28T05:55:53.781Z,5.48
2023-01-28T05:56:53.781Z,5.5
2023-01-28T05:57:53.767Z,5.52
2023-01-28T05:58:53.781Z,5.55
2023-01-28T05:59:53.781Z,5.58
2023-01-28T06:00:53.781Z,5.61
2023-01-28T06:01:53.767Z,5.61
2023-01-28T06:02:53.781Z,5.58
2023-01-28T06:03:53.782Z,5.6
2023-01-28T06:05:53.768Z,5.67
2023-01-28T06:06:53.782Z,5.68
2023-01-28T06:07:53.781Z,5.66
2023-01-28T06:08:53.767Z,5.65
2023-01-28T06:09:53.768Z,5.63
2023-01-28T06:10:53.782Z,5.63
2023-01-28T06:11:53.782Z,5.63
2023-01-28T06:12:53.767Z,5.63
2023-01-28T06:13:53.845Z,5.61
2023-01-28T06:14:53.782Z,5.61
2023-01-28T06:15:53.845Z,5.61
2023-01-28T06:16:53.768Z,5.57
2023-01-28T06:17:53.781Z,5.57
2023-01-28T06:18:53.782Z,5.57
2023-01-28T06:19:53.782Z,5.59
2023-01-28T06:20:53.768Z,5.61
2023-01-28T06:21:53.781Z,5.61
2023-01-28T06:22:53.848Z,5.59
2023-01-28T06:23:53.781Z,5.56
2023-01-28T06:24:53.768Z,5.53
2023-01-28T06:25:53.783Z,5.52
2023-01-28T06:26:53.783Z,5.51
2023-01-28T06:27:53.783Z,5.5
2023-01-28T06:28:53.768Z,5.5
2023-01-28T06:29:53.831Z,5.51
2023-01-28T06:30:53.783Z,5.55
2023-01-28T06:31:53.769Z,5.57
2023-01-28T06:32:53.769Z,5.58
2023-01-28T06:33:53.783Z,5.58
2023-01-28T06:34:53.784Z,5.59
2023-01-28T06:35:53.769Z,5.6
2023-01-28T06:36:53.809Z,5.59
2023-01-28T06:37:53.783Z,5.6
2023-01-28T06:38:53.782Z,5.63
2023-01-28T06:39:53.769Z,5.63
2023-01-28T06:40:53.783Z,5.6
2023-01-28T06:41:53.784Z,5.59
2023-01-28T06:42:53.783Z,5.59
2023-01-28T06:43:53.769Z,5.59
2023-01-28T06:44:53.784Z,5.57
2023-01-28T06:45:53.784Z,5.56
2023-01-28T06:46:53.784Z,5.59
2023-01-28T06:47:53.770Z,5.62
2023-01-28T06:48:53.784Z,5.64
2023-01-28T06:49:53.784Z,5.64
2023-01-28T06:50:53.769Z,5.63
2023-01-28T06:51:53.770Z,5.62
2023-01-28T06:52:53.784Z,5.6
2023-01-28T06:53:53.784Z,5.6
2023-01-28T06:54:53.768Z,5.63
2023-01-28T06:55:53.771Z,5.66
2023-01-28T06:56:53.783Z,5.67
2023-01-28T06:57:53.784Z,5.67
2023-01-28T06:58:53.770Z,5.68
2023-01-28T06:59:53.784Z,5.68
2023-01-28T07:00:53.785Z,5.69
2023-01-28T07:01:53.785Z,5.7
2023-01-28T07:02:53.770Z,5.72
2023-01-28T07:03:53.785Z,5.72
2023-01-28T07:04:53.786Z,5.73
2023-01-28T07:05:53.784Z,5.75
2023-01-28T07:06:53.771Z,5.79
2023-01-28T07:07:53.785Z,5.79
2023-01-28T07:08:53.786Z,5.79
2023-01-28T07:09:53.784Z,5.82
2023-01-28T07:10:53.772Z,5.82
2023-01-28T07:11:53.785Z,5.81
2023-01-28T07:12:53.785Z,5.78
2023-01-28T07:13:53.771Z,5.78
2023-01-28T07:14:53.771Z,5.75
2023-01-28T07:15:53.786Z,5.76
2023-01-28T07:16:53.786Z,5.79
2023-01-28T07:17:53.771Z,5.8
2023-01-28T07:18:53.772Z,5.81
2023-01-28T07:19:53.786Z,5.82
2023-01-28T07:20:53.785Z,5.82
2023-01-28T07:21:53.770Z,5.81
2023-01-28T07:22:53.786Z,5.79
2023-01-28T07:23:53.786Z,5.79
2023-01-28T07:24:53.785Z,5.83
2023-01-28T07:25:53.772Z,5.87
2023-01-28T07:26:53.786Z,5.89
2023-01-28T07:27:53.786Z,5.91
2023-01-28T07:28:53.785Z,5.92
2023-01-28T07:29:53.773Z,5.92
2023-01-28T07:30:53.787Z,5.92
2023-01-28T07:31:53.788Z,5.92
2023-01-28T07:32:53.787Z,5.94
2023-01-28T07:33:53.773Z,5.95
2023-01-28T07:34:53.787Z,5.98
2023-01-28T07:35:53.787Z,6.02
2023-01-28T07:36:53.773Z,6.04
2023-01-28T07:37:53.773Z,6.05
2023-01-28T07:38:53.787Z,6.06
2023-01-28T07:39:53.810Z,6.06
2023-01-28T07:40:53.773Z,6.07
2023-01-28T07:41:53.786Z,6.1
2023-01-28T07:42:53.787Z,6.14
2023-01-28T07:43:53.787Z,6.2
2023-01-28T07:44:53.773Z,6.22
2023-01-28T07:45:53.788Z,6.22
2023-01-28T07:46:53.829Z,6.24
2023-01-28T07:47:53.788Z,6.25
2023-01-28T07:48:53.774Z,6.26
2023-01-28T07:49:53.787Z,6.23
2023-01-28T07:50:53.789Z,6.21
2023-01-28T07:51:53.788Z,6.21
2023-01-28T07:52:53.772Z,6.19
2023-01-28T07:53:53.788Z,6.12
2023-01-28T07:54:53.789Z,6.08
2023-01-28T07:55:53.772Z,6.05
2023-01-28T07:56:53.774Z,6.06
2023-01-28T07:57:53.788Z,6.07
2023-01-28T07:58:53.788Z,6.1
2023-01-28T07:59:53.774Z,6.15
2023-01-28T08:00:53.789Z,6.18
2023-01-28T08:01:53.789Z,6.22
2023-01-28T08:02:53.788Z,6.24
2023-01-28T08:03:53.774Z,6.27
2023-01-28T08:04:53.789Z,6.26
2023-01-28T08:05:53.789Z,6.28
2023-01-28T08:06:53.789Z,6.31
2023-01-28T08:07:53.775Z,6.31
2023-01-28T08:08:53.789Z,6.23
2023-01-28T08:09:53.790Z,6.16
2023-01-28T08:10:53.788Z,6.08
2023-01-28T08:11:53.776Z,6.03
2023-01-28T08:12:53.788Z,6.01
2023-01-28T08:13:53.790Z,5.98
2023-01-28T08:14:53.790Z,5.98
2023-01-28T08:15:53.776Z,5.95
2023-01-28T08:16:53.813Z,5.94
2023-01-28T08:17:53.791Z,5.93
2023-01-28T08:18:53.775Z,5.89
2023-01-28T08:19:53.776Z,5.87
2023-01-28T08:20:53.790Z,5.83
2023-01-28T08:21:53.791Z,5.84
2023-01-28T08:22:53.776Z,5.89
2023-01-28T08:23:53.789Z,5.95
2023-01-28T08:24:53.790Z,6
2023-01-28T08:25:53.789Z,6.04
2023-01-28T08:26:53.776Z,6.06
2023-01-28T08:27:53.789Z,6.07
2023-01-28T08:28:53.789Z,6.06
2023-01-28T08:29:53.789Z,6.07
2023-01-28T08:30:53.776Z,6.04
2023-01-28T08:31:53.791Z,5.97
2023-01-28T08:32:53.791Z,5.91
2023-01-28T08:33:53.791Z,5.88
2023-01-28T08:34:53.777Z,5.86
2023-01-28T08:35:53.791Z,5.86
2023-01-28T08:36:53.792Z,5.9
2023-01-28T08:37:53.777Z,5.94
2023-01-28T08:38:53.777Z,5.97
2023-01-28T08:39:53.791Z,5.96
2023-01-28T08:40:53.792Z,5.96
2023-01-28T08:41:53.775Z,5.97
2023-01-28T08:42:53.778Z,5.96
2023-01-28T08:43:53.790Z,5.96
2023-01-28T08:44:53.790Z,5.96
2023-01-28T08:45:53.777Z,5.98
2023-01-28T08:46:53.792Z,6.01
2023-01-28T08:47:53.792Z,6.03
2023-01-28T08:48:53.792Z,6.05
2023-01-28T08:49:53.777Z,6.07
2023-01-28T08:50:53.791Z,6.08
2023-01-28T08:51:53.793Z,6.12
2023-01-28T08:52:53.792Z,6.15
2023-01-28T08:53:53.778Z,6.16
2023-01-28T08:54:53.792Z,6.17
2023-01-28T08:55:53.793Z,6.21
2023-01-28T08:56:53.792Z,6.27
2023-01-28T08:57:53.779Z,6.28
2023-01-28T08:58:53.792Z,6.23
2023-01-28T08:59:53.792Z,6.19
2023-01-28T09:00:53.777Z,6.16
2023-01-28T09:01:53.779Z,6.15
2023-01-28T09:02:53.793Z,6.2
2023-01-28T09:03:53.792Z,6.24
2023-01-28T09:04:53.779Z,6.22
2023-01-28T09:05:53.792Z,6.17
2023-01-28T09:06:53.793Z,6.17
2023-01-28T09:07:53.793Z,6.18
2023-01-28T09:08:53.779Z,6.2
2023-01-28T09:09:53.793Z,6.24
2023-01-28T09:10:53.793Z,6.27
2023-01-28T09:11:53.793Z,6.27
2023-01-28T09:12:53.779Z,6.24
2023-01-28T09:13:53.792Z,6.2
2023-01-28T09:14:53.865Z,6.19
2023-01-28T09:15:53.793Z,6.2
2023-01-28T09:16:53.780Z,6.22
2023-01-28T09:17:53.793Z,6.25
2023-01-28T09:18:53.794Z,6.28
2023-01-28T09:19:53.780Z,6.27
2023-01-28T09:20:53.780Z,6.22
2023-01-28T09:21:53.794Z,6.17
2023-01-28T09:22:53.794Z,6.16
2023-01-28T09:23:53.778Z,6.19
2023-01-28T09:24:53.780Z,6.22
2023-01-28T09:25:53.794Z,6.25
2023-01-28T09:26:53.794Z,6.29
2023-01-28T09:27:53.780Z,6.31
2023-01-28T09:28:53.794Z,6.28
2023-01-28T09:29:53.795Z,6.25
2023-01-28T09:30:53.795Z,6.25
2023-01-28T09:31:53.779Z,6.27
2023-01-28T09:32:53.795Z,6.31
2023-01-28T09:33:53.796Z,6.33
2023-01-28T09:34:53.795Z,6.34
2023-01-28T09:35:53.780Z,6.35
2023-01-28T09:36:53.795Z,6.35
2023-01-28T09:37:53.795Z,6.32
2023-01-28T09:38:53.795Z,6.31
2023-01-28T09:39:53.782Z,6.3
2023-01-28T09:40:53.795Z,6.32
2023-01-28T09:41:53.796Z,6.38
2023-01-28T09:42:53.781Z,6.47
2023-01-28T09:43:53.782Z,6.46
2023-01-28T09:44:53.796Z,6.46
2023-01-28T09:45:53.820Z,6.53
2023-01-28T09:46:53.781Z,6.6
2023-01-28T09:47:53.795Z,6.66
2023-01-28T09:48:53.796Z,6.65
2023-01-28T09:49:53.796Z,6.68
2023-01-28T09:50:53.782Z,6.72
2023-01-28T09:51:53.795Z,6.74
2023-01-28T09:52:53.796Z,6.78
2023-01-28T09:53:53.796Z,6.85
2023-01-28T09:54:53.783Z,6.88
2023-01-28T09:55:53.796Z,6.87
2023-01-28T09:56:53.798Z,6.88
2023-01-28T09:57:53.796Z,6.91
2023-01-28T09:58:53.782Z,6.9
2023-01-28T09:59:53.797Z,6.87
2023-01-28T10:00:53.797Z,6.89
2023-01-28T10:01:53.781Z,6.95
2023-01-28T10:02:53.783Z,7.02
2023-01-28T10:03:53.797Z,7.09
2023-01-28T10:04:53.797Z,7.07
2023-01-28T10:05:53.783Z,6.98
2023-01-28T10:06:53.837Z,6.93
2023-01-28T10:07:53.797Z,6.9
2023-01-28T10:08:53.796Z,6.92
2023-01-28T10:09:53.783Z,6.95
2023-01-28T10:10:53.798Z,6.98
2023-01-28T10:11:53.798Z,6.98
2023-01-28T10:12:53.797Z,6.99
2023-01-28T10:13:53.784Z,6.96
2023-01-28T10:14:59.863Z,6.96
2023-01-28T10:15:53.800Z,6.96
2023-01-28T10:16:53.797Z,6.98
2023-01-28T10:17:53.783Z,7.03
2023-01-28T10:18:53.797Z,7.09
2023-01-28T10:19:53.798Z,7.1
2023-01-28T10:20:53.798Z,7.07
2023-01-28T10:21:53.785Z,7.02
2023-01-28T10:22:53.798Z,6.99
2023-01-28T10:23:53.800Z,7.02
2023-01-28T10:24:53.783Z,7.07
2023-01-28T10:25:53.785Z,7.11
2023-01-28T10:26:53.799Z,7.1
2023-01-28T10:27:53.799Z,7.05
2023-01-28T10:28:53.783Z,7
2023-01-28T10:29:53.799Z,6.92
2023-01-28T10:30:53.799Z,6.86
2023-01-28T10:31:53.799Z,6.82
2023-01-28T10:32:53.785Z,6.79
2023-01-28T10:33:53.799Z,6.75
2023-01-28T10:34:53.800Z,6.72
2023-01-28T10:35:53.799Z,6.74
2023-01-28T10:36:53.786Z,6.75
2023-01-28T10:37:53.799Z,6.76
2023-01-28T10:38:53.801Z,6.79
2023-01-28T10:39:53.799Z,6.77
2023-01-28T10:40:53.786Z,6.74
2023-01-28T10:41:53.800Z,6.74
2023-01-28T10:42:53.800Z,6.81
2023-01-28T10:43:53.786Z,6.88
2023-01-28T10:44:53.787Z,6.94
2023-01-28T10:45:53.800Z,6.97
2023-01-28T10:46:53.802Z,6.99
2023-01-28T10:47:53.786Z,7.03
2023-01-28T10:48:53.800Z,7.06
2023-01-28T10:49:53.801Z,7.1
2023-01-28T10:50:53.800Z,7.17
2023-01-28T10:51:53.787Z,7.24
2023-01-28T10:52:53.800Z,7.26
2023-01-28T10:53:53.800Z,7.27
2023-01-28T10:54:53.801Z,7.3
2023-01-28T10:55:53.787Z,7.3
2023-01-28T10:56:53.800Z,7.26
2023-01-28T10:57:53.802Z,7.24
2023-01-28T10:58:53.801Z,7.24
2023-01-28T10:59:53.788Z,7.23
2023-01-28T11:01:53.802Z,7.24
2023-01-28T11:02:53.788Z,7.29
2023-01-28T11:03:53.787Z,7.23
2023-01-28T11:04:53.802Z,7.16
2023-01-28T11:05:53.802Z,7.1
2023-01-28T11:06:53.788Z,7.09
2023-01-28T11:07:53.789Z,7.08
2023-01-28T11:08:53.802Z,7.05
2023-01-28T11:09:53.801Z,7.05
2023-01-28T11:10:53.788Z,7.04
2023-01-28T11:11:53.803Z,6.98
2023-01-28T11:12:53.803Z,6.89
2023-01-28T11:13:53.803Z,6.8
2023-01-28T11:14:57.636Z,6.74
2023-01-28T11:15:53.803Z,6.73
2023-01-28T11:16:53.803Z,6.77
2023-01-28T11:17:53.802Z,6.85
2023-01-28T11:18:53.789Z,6.89
2023-01-28T11:19:53.803Z,6.95
2023-01-28T11:20:53.803Z,7.04
2023-01-28T11:21:53.802Z,7.13
2023-01-28T11:22:53.790Z,7.18
2023-01-28T11:23:53.804Z,7.22
2023-01-28T11:24:53.805Z,7.28
2023-01-28T11:25:53.789Z,7.31
2023-01-28T11:26:53.790Z,7.28
2023-01-28T11:27:53.804Z,7.28
2023-01-28T11:28:53.804Z,7.33
2023-01-28T11:29:53.790Z,7.38
2023-01-28T11:30:53.789Z,7.35
2023-01-28T11:31:53.803Z,7.31
2023-01-28T11:32:53.805Z,7.3
2023-01-28T11:33:53.790Z,7.29
2023-01-28T11:34:53.805Z,7.28
2023-01-28T11:35:53.805Z,7.31
2023-01-28T11:36:53.805Z,7.33
2023-01-28T11:37:53.790Z,7.35
2023-01-28T11:38:53.804Z,7.38
2023-01-28T11:39:53.805Z,7.41
2023-01-28T11:40:53.804Z,7.41
2023-01-28T11:41:53.791Z,7.35
2023-01-28T11:42:53.805Z,7.32
2023-01-28T11:43:53.806Z,7.36
2023-01-28T11:44:53.805Z,7.43
2023-01-28T11:45:53.792Z,7.51
2023-01-28T11:46:53.829Z,7.59
2023-01-28T11:47:53.807Z,7.62
2023-01-28T11:48:53.791Z,7.62
2023-01-28T11:49:53.792Z,7.58
2023-01-28T11:50:53.806Z,7.56
2023-01-28T11:51:53.806Z,7.58
2023-01-28T11:52:53.792Z,7.59
2023-01-28T11:53:53.806Z,7.57
2023-01-28T11:54:53.806Z,7.57
2023-01-28T11:55:53.805Z,7.57
2023-01-28T11:56:53.791Z,7.58
2023-01-28T11:57:53.807Z,7.54
2023-01-28T11:58:53.806Z,7.51
2023-01-28T11:59:53.806Z,7.54
2023-01-28T12:00:53.793Z,7.59
2023-01-28T12:01:53.806Z,7.6
2023-01-28T12:02:53.808Z,7.6
2023-01-28T12:03:53.806Z,7.6
2023-01-28T12:04:53.794Z,7.57
2023-01-28T12:05:53.807Z,7.53
2023-01-28T12:06:53.808Z,7.45
2023-01-28T12:07:53.793Z,7.4
2023-01-28T12:08:53.794Z,7.37
2023-01-28T12:09:53.808Z,7.3
2023-01-28T12:10:53.809Z,7.24
2023-01-28T12:11:53.793Z,7.19
2023-01-28T12:12:53.794Z,7.14
2023-01-28T12:13:53.808Z,7.1
2023-01-28T12:15:02.042Z,7.08
2023-01-28T12:15:53.794Z,7.03
2023-01-28T12:16:53.808Z,6.99
2023-01-28T12:17:53.808Z,6.95
2023-01-28T12:18:53.808Z,6.93
2023-01-28T12:19:53.794Z,6.93
2023-01-28T12:20:53.809Z,6.89
2023-01-28T12:21:53.808Z,6.87
2023-01-28T12:22:53.808Z,6.86
2023-01-28T12:23:53.794Z,6.82
2023-01-28T12:25:02.042Z,6.77
2023-01-28T12:25:53.810Z,6.7
2023-01-28T12:26:53.809Z,6.68
2023-01-28T12:27:53.795Z,6.64
2023-01-28T12:28:53.809Z,6.6
2023-01-28T12:29:53.809Z,6.57
2023-01-28T12:30:53.808Z,6.54
2023-01-28T12:31:53.796Z,6.51
2023-01-28T12:33:53.810Z,6.46
2023-01-28T12:34:53.795Z,6.46
2023-01-28T12:35:53.796Z,6.45
2023-01-28T12:36:53.810Z,6.46
2023-01-28T12:37:53.873Z,6.49
2023-01-28T12:38:53.796Z,6.51
2023-01-28T12:39:53.810Z,6.53
2023-01-28T12:40:53.810Z,6.56
2023-01-28T12:41:53.810Z,6.59
2023-01-28T12:42:53.796Z,6.63
2023-01-28T12:43:53.811Z,6.66
2023-01-28T12:44:53.876Z,6.65
2023-01-28T12:45:53.810Z,6.66
2023-01-28T12:47:53.811Z,6.7
2023-01-28T12:48:53.811Z,6.72
2023-01-28T12:49:53.810Z,6.77
2023-01-28T12:50:53.795Z,6.77
2023-01-28T12:51:53.859Z,6.73
2023-01-28T12:52:53.811Z,6.69
2023-01-28T12:53:53.797Z,6.65
2023-01-28T12:54:53.798Z,6.58
2023-01-28T12:55:53.811Z,6.57
2023-01-28T12:56:53.811Z,6.58
2023-01-28T12:57:53.797Z,6.63
2023-01-28T12:58:53.811Z,6.67
2023-01-28T12:59:53.812Z,6.68
2023-01-28T13:00:53.811Z,6.68
2023-01-28T13:01:53.798Z,6.69
2023-01-28T13:02:53.812Z,6.7
2023-01-28T13:03:53.812Z,6.72
2023-01-28T13:04:53.811Z,6.75
2023-01-28T13:05:53.798Z,6.77
2023-01-28T13:07:03.070Z,6.74
2023-01-28T13:07:53.812Z,6.73
2023-01-28T13:08:53.812Z,6.72
2023-01-28T13:09:53.799Z,6.72
2023-01-28T13:10:53.813Z,6.72
2023-01-28T13:11:53.813Z,6.73
2023-01-28T13:12:53.798Z,6.78
2023-01-28T13:13:53.798Z,6.82
2023-01-28T13:14:53.813Z,6.86
2023-01-28T13:15:53.814Z,6.88
2023-01-28T13:16:53.799Z,6.88
2023-01-28T13:17:53.876Z,6.86
2023-01-28T13:18:53.813Z,6.85
2023-01-28T13:19:53.813Z,6.84
2023-01-28T13:20:53.799Z,6.83
2023-01-28T13:21:53.814Z,6.78
2023-01-28T13:22:53.814Z,6.73
2023-01-28T13:23:53.814Z,6.74
2023-01-28T13:24:53.799Z,6.76
2023-01-28T13:25:53.813Z,6.75
2023-01-28T13:26:53.816Z,6.75
2023-01-28T13:27:53.813Z,6.77